首页
METAR-TAF:

METAR-TAF

机场 :

Lydd, 英格兰

纬度: 50-57N, 经度: 000-56E, 海拔: 3米

当前天气观测

该预报发布于38分钟前的20:50 UTC
风速14节,风向东转东北
温度 16°C
湿度 77%
气压 1009 hPa
能见度10公里或以上

METAR: EGMD 182050Z AUTO 06014KT 9999 NCD 16/12 Q1009

时间: 22:28 (21:28 UTC)

预报

该预报发布于1小时和5分钟前的20:23 UTC
预报有效从18日的 21点(UTC)到 19日的 06点(UTC)
风速7节,风向北转东北
能见度10公里或以上
少量云层高于2500英尺
几率 30% :
短暂存在
从 18日的 21点(UTC)到 19日的 06点(UTC)
能見度: 4000
雨, 阵雨
几率 30% :
短暂存在
从 18日的 22点(UTC)到 19日的 06点(UTC)
多云层高于900英尺
多云层高于4000英尺, 积雨云.
大阵雨, 雷暴, 雨

TAF: EGMD 182023Z 1821/1906 03007KT 9999 FEW025 PROB30 TEMPO 1821/1906 4000 RA SHRA PROB30 TEMPO 1822/1906 +SHRA TSRA BKN009 BKN040CB

超过4000个机场的气象观测和天气预报(METAR&TAF报告)。

可查询的气象台以黄色和红色小点在地图上表示。

将鼠标移到小点上方,可查看气象台名称。

然后点击查看天气观测和预报。

如需切换地图:点击带黑十字的绿色按钮放大地图;点击带横线的绿色按钮缩小地图;或者点击绿色箭头查看邻近地区的地图。


METAR-TAF: